createdAt,value
2023-12-08T00:00:24.050Z,3.13
2023-12-08T00:03:25.594Z,3.12
2023-12-08T00:06:27.106Z,3.09
2023-12-08T00:09:28.593Z,3.05
2023-12-08T00:12:30.081Z,3.04
2023-12-08T00:15:32.053Z,3.08
2023-12-08T00:18:33.724Z,3.11
2023-12-08T00:21:35.251Z,3.04
2023-12-08T00:24:36.785Z,3.03
2023-12-08T00:27:38.223Z,3.01
2023-12-08T00:30:39.666Z,3.07
2023-12-08T00:33:41.337Z,2.95
2023-12-08T00:36:43.035Z,2.91
2023-12-08T00:39:44.808Z,2.94
2023-12-08T00:42:46.287Z,3.07
2023-12-08T00:45:48.286Z,3.08
2023-12-08T00:48:49.912Z,3.05
2023-12-08T00:51:51.482Z,3.02
2023-12-08T00:54:53.242Z,2.99
2023-12-08T00:57:54.689Z,2.98
2023-12-08T01:00:56.252Z,3.01
2023-12-08T01:03:57.771Z,3.04
2023-12-08T01:06:59.277Z,3.06
2023-12-08T01:10:00.703Z,3.05
2023-12-08T01:13:02.142Z,3.10
2023-12-08T01:16:07.769Z,3.15
2023-12-08T01:19:11.833Z,3.17
2023-12-08T01:22:13.405Z,3.14
2023-12-08T01:25:14.926Z,3.20
2023-12-08T01:28:16.464Z,3.18
2023-12-08T01:31:17.970Z,3.24
2023-12-08T01:34:19.613Z,3.18
2023-12-08T01:37:21.300Z,3.25
2023-12-08T01:40:22.721Z,3.25
2023-12-08T01:43:24.205Z,3.32
2023-12-08T01:46:25.856Z,3.27
2023-12-08T01:49:27.472Z,3.22
2023-12-08T01:52:29.066Z,3.29
2023-12-08T01:55:31.317Z,3.28
2023-12-08T01:58:32.799Z,3.32
2023-12-08T02:01:34.569Z,3.30
2023-12-08T02:04:36.132Z,3.24
2023-12-08T02:07:37.599Z,3.27
2023-12-08T02:10:39.068Z,3.34
2023-12-08T02:13:42.261Z,3.38
2023-12-08T02:16:54.137Z,3.40
2023-12-08T02:19:56.778Z,3.36
2023-12-08T02:22:58.406Z,3.35
2023-12-08T02:25:59.928Z,3.32
2023-12-08T02:29:01.628Z,3.36
2023-12-08T02:32:10.967Z,3.33
2023-12-08T02:35:14.406Z,3.38
2023-12-08T02:38:20.124Z,3.62
2023-12-08T02:41:21.726Z,3.59
2023-12-08T02:44:23.254Z,3.51
2023-12-08T02:47:25.181Z,3.52
2023-12-08T02:50:26.816Z,3.47
2023-12-08T02:53:28.248Z,3.44
2023-12-08T02:56:29.718Z,3.50
2023-12-08T02:59:31.218Z,3.45
2023-12-08T03:02:32.742Z,3.42
2023-12-08T03:05:34.376Z,3.42
2023-12-08T03:08:36.847Z,3.47
2023-12-08T03:11:38.416Z,3.56
2023-12-08T03:14:39.880Z,3.52
2023-12-08T03:17:41.371Z,3.60
2023-12-08T03:20:42.870Z,3.59
2023-12-08T03:23:44.344Z,3.47
2023-12-08T03:26:46.801Z,3.40
2023-12-08T03:29:48.379Z,3.48
2023-12-08T03:32:50.060Z,3.43
2023-12-08T03:35:51.676Z,3.51
2023-12-08T03:38:53.167Z,3.47
2023-12-08T03:41:54.704Z,3.54
2023-12-08T03:44:56.256Z,3.54
2023-12-08T03:47:57.920Z,3.57
2023-12-08T03:50:59.576Z,3.51
2023-12-08T03:54:01.274Z,3.52
2023-12-08T03:57:03.173Z,3.55
2023-12-08T04:00:05.954Z,3.52
2023-12-08T04:03:07.498Z,3.50
2023-12-08T04:06:09.135Z,3.52
2023-12-08T04:09:10.765Z,3.50
2023-12-08T04:12:12.385Z,3.54
2023-12-08T04:15:14.055Z,3.63
2023-12-08T04:18:15.673Z,3.55
2023-12-08T04:21:20.543Z,3.49
2023-12-08T04:24:22.065Z,3.40
2023-12-08T04:27:23.931Z,3.50
2023-12-08T04:30:25.592Z,3.56
2023-12-08T04:33:27.156Z,3.47
2023-12-08T04:36:28.806Z,3.45
2023-12-08T04:39:30.389Z,3.54
2023-12-08T04:42:32.009Z,3.49
2023-12-08T04:45:33.670Z,3.44
2023-12-08T04:48:35.396Z,3.52
2023-12-08T04:51:36.903Z,3.57
2023-12-08T04:54:38.406Z,3.60
2023-12-08T04:57:39.871Z,3.48
2023-12-08T05:00:41.324Z,3.48
2023-12-08T05:03:43.082Z,3.36
2023-12-08T05:06:45.498Z,3.28
2023-12-08T05:09:47.047Z,3.22
2023-12-08T05:12:48.741Z,3.21
2023-12-08T05:15:50.383Z,3.18
2023-12-08T05:18:52.590Z,3.17
2023-12-08T05:21:54.229Z,3.14
2023-12-08T05:24:56.113Z,3.12
2023-12-08T05:27:58.083Z,3.21
2023-12-08T05:31:00.373Z,3.12
2023-12-08T05:34:01.989Z,3.20
2023-12-08T05:37:03.682Z,3.12
2023-12-08T05:40:06.900Z,3.29
2023-12-08T05:43:08.384Z,3.19
2023-12-08T05:46:09.840Z,3.15
2023-12-08T05:49:11.520Z,3.14
2023-12-08T05:52:13.082Z,3.02
2023-12-08T05:55:14.597Z,2.99
2023-12-08T05:58:16.127Z,2.95
2023-12-08T06:01:19.651Z,2.97
2023-12-08T06:04:21.976Z,2.98
2023-12-08T06:07:23.635Z,2.98
2023-12-08T06:10:25.240Z,2.92
2023-12-08T06:13:26.741Z,2.94
2023-12-08T06:16:28.748Z,2.86
2023-12-08T06:19:31.037Z,2.80
2023-12-08T06:22:32.932Z,2.86
2023-12-08T06:25:34.552Z,2.89
2023-12-08T06:28:36.065Z,2.91
2023-12-08T06:31:37.907Z,2.87
2023-12-08T06:34:39.726Z,2.98
2023-12-08T06:37:41.304Z,2.92
2023-12-08T06:40:43.014Z,2.83
2023-12-08T06:43:44.534Z,2.92
2023-12-08T06:46:46.034Z,2.93
2023-12-08T06:49:49.099Z,2.89
2023-12-08T06:52:52.556Z,2.94
2023-12-08T06:55:54.287Z,3.03
2023-12-08T06:58:56.397Z,3.04
2023-12-08T07:01:58.063Z,3.00
2023-12-08T07:04:59.766Z,3.09
2023-12-08T07:08:02.174Z,3.12
2023-12-08T07:11:04.232Z,2.97
2023-12-08T07:14:05.806Z,2.98
2023-12-08T07:17:07.642Z,2.94
2023-12-08T07:20:12.552Z,2.89
2023-12-08T07:23:14.231Z,2.91
2023-12-08T07:26:16.739Z,2.96
2023-12-08T07:29:18.270Z,2.94
2023-12-08T07:32:20.379Z,2.95
2023-12-08T07:35:22.062Z,2.95
2023-12-08T07:38:23.725Z,3.02
2023-12-08T07:41:26.093Z,2.94
2023-12-08T07:44:27.628Z,3.03
2023-12-08T07:47:29.613Z,3.14
2023-12-08T07:50:31.255Z,3.10
2023-12-08T07:53:32.800Z,3.02
2023-12-08T07:56:34.731Z,3.03
2023-12-08T07:59:36.387Z,3.03
2023-12-08T08:02:38.273Z,3.09
2023-12-08T08:05:39.869Z,3.18
2023-12-08T08:08:41.563Z,3.12
2023-12-08T08:11:43.093Z,3.12
2023-12-08T08:14:44.725Z,3.21
2023-12-08T08:17:46.320Z,3.20
2023-12-08T08:20:47.789Z,3.27
2023-12-08T08:23:49.302Z,3.28
2023-12-08T08:26:50.829Z,3.28
2023-12-08T08:29:52.361Z,3.22
2023-12-08T08:32:53.979Z,3.19
2023-12-08T08:35:55.569Z,3.28
2023-12-08T08:38:57.278Z,3.26
2023-12-08T08:41:58.938Z,3.22
2023-12-08T08:45:00.453Z,3.18
2023-12-08T08:48:02.836Z,3.07
2023-12-08T08:51:04.768Z,3.15
2023-12-08T08:54:06.304Z,3.11
2023-12-08T08:57:08.026Z,3.25
2023-12-08T09:00:13.431Z,3.14
2023-12-08T09:03:15.137Z,3.15
2023-12-08T09:06:17.168Z,3.23
2023-12-08T09:09:19.358Z,3.18
2023-12-08T09:12:21.041Z,3.13
2023-12-08T09:15:22.574Z,3.18
2023-12-08T09:18:24.206Z,3.19
2023-12-08T09:21:25.769Z,3.22
2023-12-08T09:24:27.773Z,3.30
2023-12-08T09:27:30.000Z,3.23
2023-12-08T09:30:32.001Z,3.28
2023-12-08T09:33:33.756Z,3.37
2023-12-08T09:36:35.475Z,3.46
2023-12-08T09:39:38.557Z,3.53
2023-12-08T09:42:48.538Z,3.49
2023-12-08T09:45:50.636Z,3.42
2023-12-08T09:48:55.838Z,3.47
2023-12-08T09:51:57.763Z,3.52
2023-12-08T09:54:59.296Z,3.60
2023-12-08T09:58:02.465Z,3.57
2023-12-08T10:01:06.437Z,3.62
2023-12-08T10:04:08.095Z,3.54
2023-12-08T10:07:11.742Z,3.50
2023-12-08T10:10:13.261Z,3.55
2023-12-08T10:13:14.839Z,3.55
2023-12-08T10:16:16.430Z,3.56
2023-12-08T10:19:21.743Z,3.55
2023-12-08T10:22:24.395Z,3.60
2023-12-08T10:25:28.401Z,3.52
2023-12-08T10:28:29.854Z,3.66
2023-12-08T10:31:31.656Z,3.66
2023-12-08T10:34:33.733Z,3.59
2023-12-08T10:37:36.470Z,3.58
2023-12-08T10:40:45.747Z,3.57
2023-12-08T10:43:47.198Z,3.61
2023-12-08T10:46:49.618Z,3.63
2023-12-08T10:49:52.457Z,3.72
2023-12-08T10:52:54.021Z,3.67
2023-12-08T10:56:09.506Z,3.65
2023-12-08T10:59:24.684Z,3.69
2023-12-08T11:02:31.356Z,3.69
2023-12-08T11:05:44.242Z,3.72
2023-12-08T11:08:47.206Z,3.76
2023-12-08T11:11:55.270Z,3.75
2023-12-08T11:15:06.434Z,3.88
2023-12-08T11:18:22.751Z,3.94
2023-12-08T11:21:25.280Z,4.01
2023-12-08T11:24:29.375Z,4.00
2023-12-08T11:28:12.884Z,4.03
2023-12-08T11:31:40.160Z,4.20
2023-12-08T11:34:58.982Z,4.21
2023-12-08T11:38:04.482Z,4.26
2023-12-08T11:41:13.496Z,4.22
2023-12-08T11:44:15.074Z,4.25
2023-12-08T11:47:25.792Z,4.28
2023-12-08T11:50:27.381Z,4.33
2023-12-08T11:53:29.150Z,4.34
2023-12-08T11:56:43.986Z,4.30
2023-12-08T11:59:45.642Z,4.43
2023-12-08T12:02:51.400Z,4.39
2023-12-08T12:05:53.315Z,4.45
2023-12-08T12:08:57.993Z,4.53
2023-12-08T12:12:06.836Z,4.52
2023-12-08T12:15:11.379Z,4.61
2023-12-08T12:18:14.518Z,4.65
2023-12-08T12:21:16.609Z,4.69
2023-12-08T12:24:18.435Z,4.66
2023-12-08T12:27:20.330Z,4.60
2023-12-08T12:30:22.487Z,4.61
2023-12-08T12:33:24.199Z,4.64
2023-12-08T12:36:25.819Z,4.74
2023-12-08T12:39:27.442Z,4.71
2023-12-08T12:42:28.998Z,4.76
2023-12-08T12:45:32.906Z,4.76
2023-12-08T12:48:34.669Z,4.81
2023-12-08T12:51:38.896Z,4.84
2023-12-08T12:54:43.707Z,4.91
2023-12-08T12:57:51.248Z,4.90
2023-12-08T13:00:53.185Z,4.96
2023-12-08T13:03:55.774Z,4.99
2023-12-08T13:06:58.127Z,5.15
2023-12-08T13:10:00.238Z,5.12
2023-12-08T13:13:01.762Z,5.18
2023-12-08T13:16:03.824Z,5.18
2023-12-08T13:19:05.541Z,5.20
2023-12-08T13:22:07.159Z,5.24
2023-12-08T13:25:09.411Z,5.29
2023-12-08T13:28:11.030Z,5.23
2023-12-08T13:31:12.459Z,5.29
2023-12-08T13:34:14.329Z,5.28
2023-12-08T13:37:16.275Z,5.39
2023-12-08T13:40:17.874Z,5.32
2023-12-08T13:43:19.554Z,5.32
2023-12-08T13:46:21.142Z,5.33
2023-12-08T13:49:23.304Z,5.34
2023-12-08T13:52:24.842Z,5.34
2023-12-08T13:55:26.304Z,5.35
2023-12-08T13:58:27.825Z,5.36
2023-12-08T14:01:32.258Z,5.45
2023-12-08T14:04:33.760Z,5.47
2023-12-08T14:07:35.409Z,5.39
2023-12-08T14:10:36.942Z,5.35
2023-12-08T14:13:38.412Z,5.35
2023-12-08T14:16:39.991Z,5.33
2023-12-08T14:19:41.505Z,5.33
2023-12-08T14:22:42.947Z,5.35
2023-12-08T14:25:44.476Z,5.35
2023-12-08T14:28:46.114Z,5.36
2023-12-08T14:31:47.661Z,5.35
2023-12-08T14:34:49.378Z,5.35
2023-12-08T14:37:51.762Z,5.37
2023-12-08T14:40:54.494Z,5.41
2023-12-08T14:43:56.434Z,5.45
2023-12-08T14:46:57.953Z,5.48
2023-12-08T14:49:59.663Z,5.40
2023-12-08T14:53:01.968Z,5.37
2023-12-08T14:56:03.940Z,5.42
2023-12-08T14:59:05.385Z,5.53
2023-12-08T15:02:07.041Z,5.38
2023-12-08T15:05:08.817Z,5.42
2023-12-08T15:08:10.305Z,5.36
2023-12-08T15:11:12.095Z,5.44
2023-12-08T15:14:13.554Z,5.40
2023-12-08T15:17:15.003Z,5.35
2023-12-08T15:20:16.585Z,5.31
2023-12-08T15:23:19.131Z,5.32
2023-12-08T15:26:21.470Z,5.28
2023-12-08T15:29:22.968Z,5.24
2023-12-08T15:32:24.565Z,5.26
2023-12-08T15:35:26.020Z,5.32
2023-12-08T15:38:27.469Z,5.34
2023-12-08T15:41:28.942Z,5.33
2023-12-08T15:44:30.395Z,5.41
2023-12-08T15:47:32.500Z,5.43
2023-12-08T15:50:34.063Z,5.43
2023-12-08T15:53:35.927Z,5.40
2023-12-08T15:56:38.701Z,5.36
2023-12-08T15:59:41.759Z,5.36
2023-12-08T16:02:43.343Z,5.38
2023-12-08T16:05:46.268Z,5.40
2023-12-08T16:08:47.919Z,5.45
2023-12-08T16:11:49.415Z,5.49
2023-12-08T16:14:50.908Z,5.47
2023-12-08T16:17:52.915Z,5.47
2023-12-08T16:20:54.447Z,5.54
2023-12-08T16:23:57.960Z,5.53
2023-12-08T16:26:59.475Z,5.59
2023-12-08T16:30:01.045Z,5.58
2023-12-08T16:33:02.592Z,5.60
2023-12-08T16:36:05.305Z,5.58
2023-12-08T16:39:06.919Z,5.60
2023-12-08T16:42:08.516Z,5.60
2023-12-08T16:45:10.617Z,5.63
2023-12-08T16:48:12.331Z,5.66
2023-12-08T16:51:14.025Z,5.68
2023-12-08T16:54:15.568Z,5.75
2023-12-08T16:57:17.065Z,5.71
2023-12-08T17:00:19.285Z,5.69
2023-12-08T17:03:21.201Z,5.67
2023-12-08T17:06:23.322Z,5.67
2023-12-08T17:09:25.212Z,5.67
2023-12-08T17:12:28.840Z,5.67
2023-12-08T17:15:30.684Z,5.72
2023-12-08T17:18:33.056Z,5.74
2023-12-08T17:21:36.793Z,5.74
2023-12-08T17:24:38.325Z,5.70
2023-12-08T17:27:39.880Z,5.70
2023-12-08T17:30:41.780Z,5.73
2023-12-08T17:33:43.728Z,5.77
2023-12-08T17:36:45.288Z,5.79
2023-12-08T17:39:47.033Z,5.84
2023-12-08T17:42:48.507Z,6.02
2023-12-08T17:45:50.133Z,6.19
2023-12-08T17:48:51.691Z,6.40
2023-12-08T17:51:53.280Z,6.49
2023-12-08T17:54:56.613Z,6.49
2023-12-08T17:57:58.065Z,6.54
2023-12-08T18:00:59.707Z,6.59
2023-12-08T18:04:01.927Z,6.62
2023-12-08T18:07:04.370Z,6.59
2023-12-08T18:10:06.470Z,6.46
2023-12-08T18:13:07.890Z,6.45
2023-12-08T18:16:21.073Z,6.46
2023-12-08T18:19:22.661Z,6.48
2023-12-08T18:22:24.426Z,6.58
2023-12-08T18:25:25.965Z,6.60
2023-12-08T18:28:58.610Z,6.55
2023-12-08T18:31:49.423Z,6.64
2023-12-08T18:34:51.004Z,6.58
2023-12-08T18:37:52.749Z,6.56
2023-12-08T18:40:54.224Z,6.57
2023-12-08T18:43:55.847Z,6.57
2023-12-08T18:46:57.380Z,6.61
2023-12-08T18:49:58.869Z,6.64
2023-12-08T18:53:00.340Z,6.65
2023-12-08T18:56:04.660Z,6.61
2023-12-08T18:59:06.160Z,6.59
2023-12-08T19:02:07.950Z,6.55
2023-12-08T19:05:10.397Z,6.56
2023-12-08T19:08:11.867Z,6.55
2023-12-08T19:11:14.227Z,6.55
2023-12-08T19:14:15.760Z,6.53
2023-12-08T19:17:17.523Z,6.51
2023-12-08T19:20:19.183Z,6.52
2023-12-08T19:23:23.482Z,6.53
2023-12-08T19:26:24.903Z,6.59
2023-12-08T19:29:27.582Z,6.57
2023-12-08T19:32:30.501Z,6.53
2023-12-08T19:35:31.984Z,6.44
2023-12-08T19:38:33.889Z,6.44
2023-12-08T19:41:35.358Z,6.46
2023-12-08T19:44:36.929Z,6.47
2023-12-08T19:47:38.409Z,6.49
2023-12-08T19:50:39.850Z,6.45
2023-12-08T19:53:41.295Z,6.50
2023-12-08T19:56:44.345Z,6.53
2023-12-08T19:59:50.869Z,6.51
2023-12-08T20:02:52.452Z,6.37
2023-12-08T20:05:54.018Z,6.36
2023-12-08T20:08:55.590Z,6.34
2023-12-08T20:11:57.151Z,6.30
2023-12-08T20:14:58.764Z,6.28
2023-12-08T20:18:00.468Z,6.29
2023-12-08T20:21:06.051Z,6.30
2023-12-08T20:24:09.771Z,6.31
2023-12-08T20:27:11.435Z,6.30
2023-12-08T20:30:15.454Z,6.28
2023-12-08T20:33:16.995Z,6.29
2023-12-08T20:36:18.842Z,6.33
2023-12-08T20:39:20.355Z,6.36
2023-12-08T20:42:21.964Z,6.35
2023-12-08T20:45:23.444Z,6.32
2023-12-08T20:48:25.698Z,6.30
2023-12-08T20:51:27.322Z,6.29
2023-12-08T20:54:28.940Z,6.27
2023-12-08T20:57:30.849Z,6.26
2023-12-08T21:00:32.525Z,6.17
2023-12-08T21:03:34.324Z,6.19
2023-12-08T21:06:36.005Z,6.22
2023-12-08T21:09:37.591Z,6.28
2023-12-08T21:12:39.155Z,6.28
2023-12-08T21:15:40.722Z,6.33
2023-12-08T21:18:42.458Z,6.34
2023-12-08T21:21:44.034Z,6.28
2023-12-08T21:24:45.532Z,6.28
2023-12-08T21:27:47.084Z,6.31
2023-12-08T21:30:48.627Z,6.28
2023-12-08T21:33:50.616Z,6.32
2023-12-08T21:36:52.270Z,6.33
2023-12-08T21:39:53.720Z,6.36
2023-12-08T21:42:57.240Z,6.36
2023-12-08T21:45:58.888Z,6.38
2023-12-08T21:49:00.929Z,6.36
2023-12-08T21:52:03.333Z,6.35
2023-12-08T21:55:05.170Z,6.35
2023-12-08T21:58:06.692Z,6.36
2023-12-08T22:01:08.296Z,6.36
2023-12-08T22:04:09.862Z,6.37
2023-12-08T22:07:11.410Z,6.42
2023-12-08T22:10:12.984Z,6.44
2023-12-08T22:13:14.481Z,6.46
2023-12-08T22:16:16.103Z,6.47
2023-12-08T22:19:17.679Z,6.48
2023-12-08T22:22:19.418Z,6.47
2023-12-08T22:25:20.855Z,6.41
2023-12-08T22:28:24.420Z,6.40
2023-12-08T22:31:26.041Z,6.42
2023-12-08T22:34:27.772Z,6.42
2023-12-08T22:37:29.687Z,6.46
2023-12-08T22:40:31.346Z,6.42
2023-12-08T22:43:34.859Z,6.40
2023-12-08T22:46:36.553Z,6.41
2023-12-08T22:49:38.057Z,6.40
2023-12-08T22:52:39.631Z,6.42
2023-12-08T22:55:41.083Z,6.47
2023-12-08T22:58:43.191Z,6.49
2023-12-08T23:01:44.815Z,6.49
2023-12-08T23:04:46.557Z,6.50
2023-12-08T23:07:48.917Z,6.50
2023-12-08T23:10:50.475Z,6.49
2023-12-08T23:13:52.398Z,6.44
2023-12-08T23:16:53.852Z,6.45
2023-12-08T23:19:55.421Z,6.42
2023-12-08T23:22:56.859Z,6.41
2023-12-08T23:25:59.182Z,6.49
2023-12-08T23:29:01.984Z,6.48
2023-12-08T23:32:04.120Z,6.45
2023-12-08T23:35:07.792Z,6.47
2023-12-08T23:38:09.229Z,6.49
2023-12-08T23:41:10.793Z,6.51
2023-12-08T23:44:12.377Z,6.52
2023-12-08T23:47:14.042Z,6.55
2023-12-08T23:50:15.658Z,6.54
2023-12-08T23:53:19.662Z,6.54
2023-12-08T23:56:23.678Z,6.53
2023-12-08T23:59:26.014Z,6.55
